My Meet Scores
Megan Cheung, St. Charles Gymnastics Academy - MyMeetScores.com
Top100 | Top Teams | Upcoming Meets | Completed Meets | Latest | Add Scores | Help| Support | Bookmark and Share

Megan Cheung, St. Charles Gymnastics Academy
Personal Bests
LevelVault BarsBeamFloorAA
39.3759.500 9.4759.17536.950
49.3759.725 9.6759.47538.100
68.7509.200 9.3509.45036.400
79.5009.350 9.6509.40037.225
Meet Scores
Date Meet Team Session Level Division Vault Bars Beam Floor AA
2022-04-01 Level 6-7-8 State 2022 St. Charles Gymnastics Academy 07 7 Jr C 9.225 11T 9.350 9 9.650 1 8.750 25 36.975 12
2022-02-25 Gasparilla Classic St. Charles Gymnastics Academy A10 7 L7 a10 g3 9.500 3T 8.900 8 9.425 1 9.400 3T 37.225 5
2022-02-18 BIG Classic 2022 St. Charles Gymnastics Academy 4A 7 Junior C 8.600 7 9.250 4 8.625 7 9.200 7 35.675 7
2022-02-11 SCGA Classic 2022 St. Charles Gymnastics Academy F2 7 Jr C 9.325 6 9.225 4 9.525 1 9.075 8 37.150 4T
2022-01-21 King Arthur Invitational 2022 St. Charles Gymnastics Academy 8 7 Sr A 8.900 16T 9.325 3 9.450 2 9.175 8 36.850 1
2022-01-07 St Jude Benefit Meet 2022 St. Charles Gymnastics Academy 4B 7 Sr A 8.750 15 9.275 2T 9.250 2 8.525 14 35.800 4
2021-12-10 St. Nick Invite 2021 St. Charles Gymnastics Academy 1A 7 SrA 8.550 9T 8.900 5T 9.425 1 8.925 7 35.800 6
2021-04-15 Illinois level 6 & Xcel Silver State Champion St. Charles Gymnastics Academy 08 6 Multiple 8.300 57 9.075 24T 9.000 41T 9.450 26T 35.825 37
2021-03-12 LUCKY INVITATIONAL St. Charles Gymnastics Academy A02 6 Jr B 8.550 12T 9.175 6 8.300 16 9.450 8 35.475 10
2021-02-19 BIG Classic 2021 St. Charles Gymnastics Academy 1B 6 Junior A 8.000 11T 8.800 6 9.250 2 9.175 7T 35.225 5
2021-01-21 King Arthur Invitational St. Charles Gymnastics Academy 4 6 JR 8.750 8 9.200 5T 9.350 3 9.100 9 36.400 5
2020-03-06 Illinois Level 4 State Championships St. Charles Gymnastics Academy 6 4 Sr A 9.375 2 9.575 1T 9.675 1 9.475 1 38.100 1
2020-02-21 Great Western Invitational - Women's St. Charles Gymnastics Academy 05 4 Pony 9.200 1 9.525 3 9.525 3 9.275 3 37.525 1
2020-02-14 Big Classic St. Charles Gymnastics Academy 3B 4 Child E 8.350 8T 9.425 4 9.600 12T 9.300 8 36.675 5
2020-02-07 SCGA Classic St. Charles Gymnastics Academy 4 4 Jr C 8.550 4T 9.400 1 8.825 6T 9.325 2 36.100 3
2020-01-24 King Arthur Invitational St. Charles Gymnastics Academy 1 4 Sr B 8.725 4 9.500 1 9.450 2 9.150 1 36.825 1
2020-01-10 St Jude Benefit Meet St. Charles Gymnastics Academy 3A 4 Sr B 8.800 6T 9.700 1T 9.475 1 9.125 3 37.100 2
2019-12-13 2019 St Nick St. Charles Gymnastics Academy 6B 4 SrB 9.025 4 9.575 1 8.800 9T 9.450 1 36.850 1
2019-03-22 Illinois Gymnastics State Championships St. Charles Gymnastics Academy 7 4 YT E 8.600 22T 9.725 2 9.025 19 9.050 16 36.400 15
2019-02-08 IGI Chicago Style 2019 St. Charles Gymnastics Academy 38 4 231 Lakeshore L4 B 8.800 6 9.275 6 9.550 2 8.775 10 36.400 6
2019-01-25 King Arthur Invitational St. Charles Gymnastics Academy 9 4 SR A 8.800 7T 9.100 6 9.450 2 8.700 9 36.050 6
2019-01-11 St Jude Benefit Meet St. Charles Gymnastics Academy 7A 4 Sr A 8.750 9 9.175 1 9.350 4 9.200 4 36.475 4
2018-12-07 St. Nick Invite 2018 St. Charles Gymnastics Academy 5A 4 SrA 8.600 15 9.450 4 9.350 4T 9.250 6 36.650 5T
2018-02-23 Kinetic Classic St. Charles Gymnastics Academy 5 3 Older 8.950 39T 9.225 49 9.100 34T 9.175 39T 36.450 38T
2018-02-16 Big Classic St. Charles Gymnastics Academy 8B 3 Child C 9.100 7 9.500 4 9.125 4T 9.100 5 36.825 4
2018-01-26 King Arthur Invitational St. Charles Gymnastics Academy 7 3 SR A 9.375 5 9.400 1 9.475 1 8.700 7T 36.950 3
2018-01-12 St Jude Benefit Meet St. Charles Gymnastics Academy 7A 3 SrA 9.025 9T 9.000 5 9.100 2 8.875 8 36.000 5T
2017-12-14 2017 Women's Hawaiian Pineapple Classic St. Charles Gymnastics Academy 4A 3 Age9 8.950 15 8.800 13T 7.550 19 9.100 7 34.400 17
2017-12-01 Ultimate Wish Classic St. Charles Gymnastics Academy 5 3 JR 9.225 3 9.425 1 8.750 3 9.100 1 36.500 1
Get your scores on
a t-shirt, pin, or hoodie